Time;durP1;ratioP1;P1;durP2;ratioP2;P2;SDS_P1;SDS_P2;PMS_P1;PMS_P2;Temp;Humidity;BMP_temperature;BMP_pressure;BME280_temperature;BME280_humidity;BME280_pressure;Samples;Min_cycle;Max_cycle;Signal;HPM_P1;HPM_P2
2023/02/14 00:01:16;;;;;;;;;;;;;;;17.66;62.45;103073.53;2310946;77;50493;-73
2023/02/14 00:04:17;;;;;;;;;;;;;;;17.65;62.62;103065.14;2310815;77;50391;-73
2023/02/14 00:07:19;;;;;;;;;;;;;;;17.62;62.55;103071.59;2319383;76;50700;-74
2023/02/14 00:10:20;;;;;;;;;;;;;;;17.61;62.67;103077.05;2300180;76;51180;-74
2023/02/14 00:13:22;;;;;;;;;;;;;;;17.61;62.78;103075.22;2326197;76;50018;-74
2023/02/14 00:16:24;;;;;;;;;;;;;;;17.62;62.73;103064.89;2319806;76;50704;-73
2023/02/14 00:19:25;;;;;;;;;;;;;;;17.64;62.67;103064.27;2326115;76;51370;-74
2023/02/14 00:22:27;;;;;;;;;;;;;;;17.66;62.86;103063.31;2299785;76;52392;-74
2023/02/14 00:25:28;;;;;;;;;;;;;;;17.62;62.71;103071.59;2344006;75;50618;-73
2023/02/14 00:28:30;;;;;;;;;;;;;;;17.61;62.93;103070.36;2298675;76;50396;-74
2023/02/14 00:31:32;;;;;;;;;;;;;;;17.60;62.93;103068.17;2325310;76;50704;-74
2023/02/14 00:34:35;;;;;;;;;;;;;;;17.63;62.72;103068.42;2309168;76;51152;-74
2023/02/14 00:37:51;;;;;;;;;;;;;;;17.64;62.79;103066.95;2354205;75;51496;-73
2023/02/14 00:40:53;;;;;;;;;;;;;;;17.64;62.78;103066.09;2352502;75;50327;-73
2023/02/14 00:43:55;;;;;;;;;;;;;;;17.62;63.02;103058.20;2337604;75;50264;-74
2023/02/14 00:46:56;;;;;;;;;;;;;;;17.63;63.02;103056.38;2354808;75;50973;-73
2023/02/14 00:50:03;;;;;;;;;;;;;;;17.62;62.95;103066.23;2323272;76;50752;-74
2023/02/14 00:53:01;;;;;;;;;;;;;;;17.62;62.90;103066.23;2334461;76;22319;-73
2023/02/14 00:56:03;;;;;;;;;;;;;;;17.60;63.12;103065.49;2335777;76;52517;-74
2023/02/14 00:59:04;;;;;;;;;;;;;;;17.56;63.24;103057.31;2313597;76;51739;-74
2023/02/14 01:02:06;;;;;;;;;;;;;;;17.57;63.03;103062.17;2339731;76;50902;-73
2023/02/14 01:05:07;;;;;;;;;;;;;;;17.58;63.02;103057.21;2338265;76;50389;-73
2023/02/14 01:08:09;;;;;;;;;;;;;;;17.60;63.29;103057.95;2319579;76;50623;-73
2023/02/14 01:11:12;;;;;;;;;;;;;;;17.64;63.23;103058.91;2295189;76;50886;-73
2023/02/14 01:14:13;;;;;;;;;;;;;;;17.66;63.24;103059.30;2319439;76;51476;-72
2023/02/14 01:17:15;;;;;;;;;;;;;;;17.64;63.23;103046.86;2321574;76;51483;-73
2023/02/14 01:20:16;;;;;;;;;;;;;;;17.65;63.30;103046.41;2310816;76;50033;-73
2023/02/14 01:23:18;;;;;;;;;;;;;;;17.65;63.45;103039.71;2247866;78;52374;-73
2023/02/14 01:26:20;;;;;;;;;;;;;;;17.66;63.53;103044.58;2271012;77;51380;-73
2023/02/14 01:29:21;;;;;;;;;;;;;;;17.62;63.68;103039.92;2273145;77;50705;-74
2023/02/14 01:32:23;;;;;;;;;;;;;;;17.63;64.03;103038.97;2272690;77;50676;-72
2023/02/14 01:35:25;;;;;;;;;;;;;;;17.66;63.75;103039.22;2272856;77;50626;-73
2023/02/14 01:38:26;;;;;;;;;;;;;;;17.65;63.70;103039.71;2273039;77;51399;-73
2023/02/14 01:41:29;;;;;;;;;;;;;;;17.66;63.72;103031.19;2273276;77;50223;-73
2023/02/14 01:44:38;;;;;;;;;;;;;;;17.64;63.76;103031.30;2271336;77;51499;-73
2023/02/14 01:47:40;;;;;;;;;;;;;;;17.63;63.85;103026.92;2249262;76;51233;-73
2023/02/14 01:50:43;;;;;;;;;;;;;;;17.62;63.94;103021.18;2303897;76;50694;-74
2023/02/14 01:53:44;;;;;;;;;;;;;;;17.64;63.91;103021.43;2319943;76;50670;-73
2023/02/14 01:56:47;;;;;;;;;;;;;;;17.61;64.00;103017.66;2316926;75;51532;-73
2023/02/14 01:59:50;;;;;;;;;;;;;;;17.61;63.93;103023.02;2309530;76;51235;-74
2023/02/14 02:02:52;;;;;;;;;;;;;;;17.59;63.82;103018.25;2321016;75;51525;-73
2023/02/14 02:05:55;;;;;;;;;;;;;;;17.57;63.79;103024.24;2297184;76;50717;-73
2023/02/14 02:09:13;;;;;;;;;;;;;;;17.58;63.76;103022.41;2300741;76;50637;-74
2023/02/14 02:12:15;;;;;;;;;;;;;;;17.56;63.73;103019.84;2313420;76;51427;-73
2023/02/14 02:15:16;;;;;;;;;;;;;;;17.59;63.94;103023.61;2313635;77;50271;-73
2023/02/14 02:18:19;;;;;;;;;;;;;;;17.62;63.93;103025.20;2337387;75;51674;-73
2023/02/14 02:21:22;;;;;;;;;;;;;;;17.61;64.18;103028.86;2350596;75;50944;-73
2023/02/14 02:24:26;;;;;;;;;;;;;;;17.61;64.12;103023.02;2323383;75;52545;-73
2023/02/14 02:27:45;;;;;;;;;;;;;;;17.63;63.95;103025.09;2350625;75;51639;-74
2023/02/14 02:30:54;;;;;;;;;;;;;;;17.60;64.12;103030.69;2350725;75;50639;-74
2023/02/14 02:34:13;;;;;;;;;;;;;;;17.60;64.04;103031.18;2350599;75;50321;-74
2023/02/14 02:37:33;;;;;;;;;;;;;;;17.61;63.89;103019.00;2324104;75;50158;-73
2023/02/14 02:40:54;;;;;;;;;;;;;;;17.63;63.84;103014.88;2350984;75;50267;-74
2023/02/14 02:44:09;;;;;;;;;;;;;;;17.61;63.91;103020.34;2350751;75;52533;-73
2023/02/14 02:47:27;;;;;;;;;;;;;;;17.61;64.01;103023.02;2306102;75;51465;-73
2023/02/14 02:54:05;;;;;;;;;;;;;;;17.59;63.98;103031.64;2283534;78;24368;-73
2023/02/14 02:57:08;;;;;;;;;;;;;;;17.59;63.98;103027.63;2283442;78;50284;-73
2023/02/14 03:00:11;;;;;;;;;;;;;;;17.58;63.96;103024.59;2282709;78;49982;-73
2023/02/14 03:06:32;;;;;;;;;;;;;;;17.56;63.94;103027.87;2278448;77;22479;-73
2023/02/14 03:09:40;;;;;;;;;;;;;;;17.56;63.82;103018.50;2303037;77;51428;-74
2023/02/14 03:12:41;;;;;;;;;;;;;;;17.57;63.71;103020.22;2302619;76;22628;-73
2023/02/14 03:16:02;;;;;;;;;;;;;;;17.57;63.58;103016.20;2300561;76;51771;-73
2023/02/14 03:22:30;;;;;;;;;;;;;;;17.59;63.33;103017.41;2322130;75;22319;-73
2023/02/14 03:25:33;;;;;;;;;;;;;;;17.59;63.59;103018.25;2321573;76;50354;-74
2023/02/14 03:28:42;;;;;;;;;;;;;;;17.60;63.52;103023.15;2309186;75;51256;-72
2023/02/14 03:31:48;;;;;;;;;;;;;;;17.58;63.58;103018.39;2310243;76;50545;-73
2023/02/14 03:34:54;;;;;;;;;;;;;;;17.58;63.71;103015.72;2307358;76;50706;-73
2023/02/14 03:38:10;;;;;;;;;;;;;;;17.60;63.64;103019.13;2309534;75;50694;-73
2023/02/14 03:41:12;;;;;;;;;;;;;;;17.60;63.58;103011.10;2295382;76;51727;-73
2023/02/14 03:44:14;;;;;;;;;;;;;;;17.59;63.58;103020.09;2319588;76;52356;-74
2023/02/14 03:47:17;;;;;;;;;;;;;;;17.59;63.55;103012.90;2319878;76;51414;-74
2023/02/14 03:50:19;;;;;;;;;;;;;;;17.59;63.49;103019.59;2319893;76;51458;-74
2023/02/14 03:53:21;;;;;;;;;;;;;;;17.59;63.42;103018.25;2320932;76;50630;-73
2023/02/14 03:56:28;;;;;;;;;;;;;;;17.59;63.57;103014.73;2321433;76;51276;-72
2023/02/14 03:59:29;;;;;;;;;;;;;;;17.59;63.46;103023.61;2320228;76;53994;-73
2023/02/14 04:02:32;;;;;;;;;;;;;;;17.59;63.46;103017.41;2319865;76;51465;-73
2023/02/14 04:05:34;;;;;;;;;;;;;;;17.59;63.43;103016.07;2317674;76;51532;-74
2023/02/14 04:08:36;;;;;;;;;;;;;;;17.59;63.47;103015.58;2300417;76;52485;-73
2023/02/14 04:11:37;;;;;;;;;;;;;;;17.57;63.57;103007.30;2322573;76;50693;-73
2023/02/14 04:14:39;;;;;;;;;;;;;;;17.56;63.57;103010.47;2322518;75;50648;-73
2023/02/14 04:21:00;;;;;;;;;;;;;;;17.57;63.49;103012.19;2313432;76;22486;-73
2023/02/14 04:24:02;;;;;;;;;;;;;;;17.57;63.48;103005.95;2303699;77;50263;-73
2023/02/14 04:27:09;;;;;;;;;;;;;;;17.57;63.34;103008.64;2303602;76;50208;-73
2023/02/14 04:30:11;;;;;;;;;;;;;;;17.59;63.27;103013.39;2301129;76;50736;-74
2023/02/14 04:33:13;;;;;;;;;;;;;;;17.61;63.04;103011.45;2304721;77;52653;-73
2023/02/14 04:36:14;;;;;;;;;;;;;;;17.59;63.20;103007.55;2304774;76;50630;-73
2023/02/14 04:39:16;;;;;;;;;;;;;;;17.59;63.19;103006.20;2304345;77;51446;-72
2023/02/14 04:42:17;;;;;;;;;;;;;;;17.60;63.41;103005.75;2305007;77;51357;-74
2023/02/14 04:45:19;;;;;;;;;;;;;;;17.58;63.49;102997.83;2304939;77;51705;-74
2023/02/14 04:48:21;;;;;;;;;;;;;;;17.60;63.38;103003.07;2304907;77;51619;-73
2023/02/14 04:51:22;;;;;;;;;;;;;;;17.59;63.47;103002.19;2305920;76;50717;-72
2023/02/14 04:54:24;;;;;;;;;;;;;;;17.59;63.54;102998.17;2271640;77;50721;-74
2023/02/14 04:57:25;;;;;;;;;;;;;;;17.59;63.61;102993.31;2248766;78;50159;-74
2023/02/14 05:00:27;;;;;;;;;;;;;;;17.59;63.59;102995.99;2272111;78;50418;-74
2023/02/14 05:03:29;;;;;;;;;;;;;;;17.58;63.52;102998.31;2273758;77;51511;-74
2023/02/14 05:06:31;;;;;;;;;;;;;;;17.56;63.53;102993.06;2274230;77;53869;-72
2023/02/14 05:09:33;;;;;;;;;;;;;;;17.57;63.47;102990.78;2276379;77;51086;-73
2023/02/14 05:12:34;;;;;;;;;;;;;;;17.57;63.53;102988.09;2301730;76;50693;-74
2023/02/14 05:15:36;;;;;;;;;;;;;;;17.56;63.60;102985.03;2297970;77;50605;-73
2023/02/14 05:18:38;;;;;;;;;;;;;;;17.56;63.58;102990.39;2304843;76;50163;-73
2023/02/14 05:21:39;;;;;;;;;;;;;;;17.55;63.63;102984.69;2335511;76;51636;-74
2023/02/14 05:24:41;;;;;;;;;;;;;;;17.53;63.59;102977.25;2354490;75;52298;-73
2023/02/14 05:27:42;;;;;;;;;;;;;;;17.55;63.60;102986.02;2337272;75;50251;-72
2023/02/14 05:30:44;;;;;;;;;;;;;;;17.57;63.32;102978.73;2337360;76;50616;-73
2023/02/14 05:33:46;;;;;;;;;;;;;;;17.58;63.12;102976.41;2327391;76;51093;-70
2023/02/14 05:36:47;;;;;;;;;;;;;;;17.58;63.15;102976.41;2354495;75;50599;-69
2023/02/14 05:39:49;;;;;;;;;;;;;;;17.60;63.28;102980.31;2337424;75;51334;-70
2023/02/14 05:42:52;;;;;;;;;;;;;;;17.59;62.68;102973.23;2354201;75;50763;-70
2023/02/14 05:45:54;;;;;;;;;;;;;;;17.57;62.28;102974.72;2327162;76;52356;-70
2023/02/14 05:48:55;;;;;;;;;;;;;;;17.55;62.33;102971.30;2354524;74;53664;-69
2023/02/14 05:51:57;;;;;;;;;;;;;;;17.53;62.38;102982.61;2318737;75;52563;-70
2023/02/14 05:54:58;;;;;;;;;;;;;;;17.52;62.72;102982.25;2315387;75;51580;-71
2023/02/14 05:58:00;;;;;;;;;;;;;;;17.50;61.96;102974.82;2309467;76;51570;-70
2023/02/14 06:01:02;;;;;;;;;;;;;;;17.52;61.71;102972.87;2297942;76;51555;-71
2023/02/14 06:04:03;;;;;;;;;;;;;;;17.52;61.46;102972.87;2297767;77;51443;-70
2023/02/14 06:07:05;;;;;;;;;;;;;;;17.54;61.68;102970.91;2300241;75;50106;-69
2023/02/14 06:10:08;;;;;;;;;;;;;;;17.55;61.79;102975.31;2276283;76;49498;-69
2023/02/14 06:13:10;;;;;;;;;;;;;;;17.53;62.00;102974.58;2276247;77;50781;-70
2023/02/14 06:16:11;;;;;;;;;;;;;;;17.55;61.69;102975.31;2274566;76;50708;-69
2023/02/14 06:19:13;;;;;;;;;;;;;;;17.56;62.70;102977.00;2276573;77;50797;-69
2023/02/14 06:22:15;;;;;;;;;;;;;;;17.59;63.02;102984.79;2276143;77;52280;-69
2023/02/14 06:25:16;;;;;;;;;;;;;;;17.57;63.30;102982.75;2323348;75;51491;-69
2023/02/14 06:28:18;;;;;;;;;;;;;;;17.55;62.86;102976.66;2313390;76;51525;-69
2023/02/14 06:31:19;;;;;;;;;;;;;;;17.53;62.80;102979.92;2315893;76;52318;-71
2023/02/14 06:34:21;;;;;;;;;;;;;;;17.53;62.62;102978.59;2289612;77;52535;-69
2023/02/14 06:37:23;;;;;;;;;;;;;;;17.54;62.64;102980.77;2315639;76;51576;-69
2023/02/14 06:40:24;;;;;;;;;;;;;;;17.54;62.48;102986.97;2311352;77;51702;-69
2023/02/14 06:43:26;;;;;;;;;;;;;;;17.58;62.32;102983.59;2315405;76;51532;-69
2023/02/14 06:46:27;;;;;;;;;;;;;;;17.59;62.77;102990.64;2289673;77;51670;-70
2023/02/14 06:49:29;;;;;;;;;;;;;;;17.56;63.54;102987.71;2315668;76;51463;-69
2023/02/14 06:52:31;;;;;;;;;;;;;;;17.56;63.73;102981.02;2311141;77;50388;-69
2023/02/14 06:55:33;;;;;;;;;;;;;;;17.57;64.22;102985.42;2303643;76;51523;-69
2023/02/14 06:58:34;;;;;;;;;;;;;;;17.56;64.32;102986.37;2294891;76;52359;-70
2023/02/14 07:01:36;;;;;;;;;;;;;;;17.56;63.77;102985.03;2321555;76;50365;-68
2023/02/14 07:04:38;;;;;;;;;;;;;;;17.55;63.92;102982.00;2319424;76;50326;-69
2023/02/14 07:07:39;;;;;;;;;;;;;;;17.54;63.61;102984.30;2319323;75;50494;-72
2023/02/14 07:10:41;;;;;;;;;;;;;;;17.55;63.18;102979.33;2321828;76;51766;-73
2023/02/14 07:13:43;;;;;;;;;;;;;;;17.61;62.99;102977.50;2321747;76;51528;-73
2023/02/14 07:16:44;;;;;;;;;;;;;;;17.63;62.78;102970.20;2322012;76;50248;-74
2023/02/14 07:19:46;;;;;;;;;;;;;;;17.67;63.03;102973.98;2322066;76;50736;-74
2023/02/14 07:22:47;;;;;;;;;;;;;;;17.69;62.59;102977.39;2321649;76;52616;-74
2023/02/14 07:25:49;;;;;;;;;;;;;;;17.66;62.60;102976.30;2309995;76;50717;-74
2023/02/14 07:28:51;;;;;;;;;;;;;;;17.68;62.41;102971.69;2319899;76;50621;-74
2023/02/14 07:31:52;;;;;;;;;;;;;;;17.61;62.73;102972.64;2320073;76;51513;-74
2023/02/14 07:34:54;;;;;;;;;;;;;;;17.62;62.55;102983.70;2321860;76;51702;-74
2023/02/14 07:37:55;;;;;;;;;;;;;;;17.57;62.44;102982.75;2321966;76;51377;-74
2023/02/14 07:40:57;;;;;;;;;;;;;;;17.56;61.80;102983.70;2319954;76;50732;-74
2023/02/14 07:43:59;;;;;;;;;;;;;;;17.56;61.83;102986.37;2319613;76;50738;-74
2023/02/14 07:47:00;;;;;;;;;;;;;;;17.52;61.93;102979.57;2322139;75;50890;-75
2023/02/14 07:50:02;;;;;;;;;;;;;;;17.51;61.97;102977.84;2317712;75;50625;-74
2023/02/14 07:53:04;;;;;;;;;;;;;;;17.51;61.97;102977.84;2317214;76;50812;-74
2023/02/14 07:56:06;;;;;;;;;;;;;;;17.50;62.42;102969.47;2288013;76;51759;-73
2023/02/14 07:59:07;;;;;;;;;;;;;;;17.49;62.22;102967.73;2292665;76;51669;-73
2023/02/14 08:02:12;;;;;;;;;;;;;;;17.49;62.08;102969.08;2336427;76;50641;-74
2023/02/14 08:05:14;;;;;;;;;;;;;;;17.50;62.04;102970.80;2321877;76;51419;-74
2023/02/14 08:08:15;;;;;;;;;;;;;;;17.47;62.04;102971.05;2336121;74;51482;-73
2023/02/14 08:14:37;;;;;;;;;;;;;;;17.45;62.14;102978.34;2322365;75;21720;-74
2023/02/14 08:17:38;;;;;;;;;;;;;;;17.47;62.56;102987.11;2322165;75;51465;-74
2023/02/14 08:20:40;;;;;;;;;;;;;;;17.59;62.17;102984.79;2322065;76;50737;-74
2023/02/14 08:23:41;;;;;;;;;;;;;;;17.68;61.75;102985.07;2295634;76;50935;-74
2023/02/14 08:26:43;;;;;;;;;;;;;;;17.64;61.77;102989.30;2310853;76;51506;-74
2023/02/14 08:29:45;;;;;;;;;;;;;;;17.68;61.22;102993.11;2274912;77;51327;-74
2023/02/14 08:32:46;;;;;;;;;;;;;;;17.69;60.46;102994.80;2275192;78;50710;-74
2023/02/14 08:35:48;;;;;;;;;;;;;;;17.62;60.18;103000.64;2277377;76;51531;-74
2023/02/14 08:38:49;;;;;;;;;;;;;;;17.58;59.66;103004.52;2274994;77;50621;-75
2023/02/14 08:41:51;;;;;;;;;;;;;;;17.54;59.23;103004.87;2277184;76;50725;-74
2023/02/14 08:44:52;;;;;;;;;;;;;;;17.54;58.70;103004.87;2303836;76;50624;-74
2023/02/14 08:47:54;;;;;;;;;;;;;;;17.48;57.82;103010.70;2283125;77;51612;-74
2023/02/14 08:50:56;;;;;;;;;;;;;;;17.44;57.79;103010.56;2308972;76;50460;-74
2023/02/14 08:53:57;;;;;;;;;;;;;;;17.45;57.26;103009.61;2316544;76;50689;-75
2023/02/14 08:56:59;;;;;;;;;;;;;;;17.47;56.04;103008.52;2321822;76;51425;-74
2023/02/14 09:00:00;;;;;;;;;;;;;;;17.50;55.27;103008.77;2309906;75;51518;-74
2023/02/14 09:03:02;;;;;;;;;;;;;;;17.52;54.61;103002.78;2309690;76;51503;-74
2023/02/14 09:06:04;;;;;;;;;;;;;;;17.51;54.40;103009.13;2321739;76;51495;-74
2023/02/14 09:09:06;;;;;;;;;;;;;;;17.58;53.79;103017.90;2321677;75;52255;-74
2023/02/14 09:12:08;;;;;;;;;;;;;;;17.56;53.38;103009.13;2284033;76;51218;-74
2023/02/14 09:15:10;;;;;;;;;;;;;;;17.60;52.75;103017.30;2309564;76;51663;-75
2023/02/14 09:18:11;;;;;;;;;;;;;;;17.60;52.38;103011.10;2309750;76;51568;-75
2023/02/14 09:21:14;;;;;;;;;;;;;;;17.59;52.09;103013.39;2309419;76;50609;-74
2023/02/14 09:24:15;;;;;;;;;;;;;;;17.64;51.83;103017.41;2304708;76;51815;-74
2023/02/14 09:27:17;;;;;;;;;;;;;;;17.58;51.79;103012.55;2321966;75;50425;-74
2023/02/14 09:30:19;;;;;;;;;;;;;;;17.59;51.68;103008.88;2321960;76;50389;-75
2023/02/14 09:33:21;;;;;;;;;;;;;;;17.57;51.68;103014.87;2321913;76;50143;-74
2023/02/14 09:36:22;;;;;;;;;;;;;;;17.63;51.68;103013.53;2285836;76;49609;-73
2023/02/14 09:39:24;;;;;;;;;;;;;;;17.60;51.80;103014.62;2322086;76;50268;-74
2023/02/14 09:42:30;;;;;;;;;;;;;;;17.63;51.95;103013.05;2319931;76;50311;-74
2023/02/14 09:45:32;;;;;;;;;;;;;;;17.66;52.05;103014.62;2319912;76;50686;-75
2023/02/14 09:48:35;;;;;;;;;;;;;;;17.58;52.22;103005.85;2321653;76;50873;-75
2023/02/14 09:51:37;;;;;;;;;;;;;;;17.60;52.37;103011.10;2319895;76;51481;-75
2023/02/14 09:54:38;;;;;;;;;;;;;;;17.61;52.51;103010.12;2296829;76;51573;-73
2023/02/14 09:57:58;;;;;;;;;;;;;;;17.74;52.38;103020.23;2319628;76;51484;-73
2023/02/14 10:01:20;;;;;;;;;;;;;;;17.68;52.26;103023.41;2320995;76;52799;-73
2023/02/14 10:04:32;;;;;;;;;;;;;;;17.44;48.51;103011.41;2318667;76;50654;-74
2023/02/14 10:07:35;;;;;;;;;;;;;;;17.24;46.84;103020.98;2319057;75;50660;-74
2023/02/14 10:10:38;;;;;;;;;;;;;;;17.12;46.03;103020.06;2319216;76;50828;-74
2023/02/14 10:13:40;;;;;;;;;;;;;;;16.97;45.25;103015.38;2294732;76;50963;-73
2023/02/14 10:16:46;;;;;;;;;;;;;;;16.83;45.33;103012.89;2319425;76;51569;-74
2023/02/14 10:19:58;;;;;;;;;;;;;;;16.84;46.03;103012.41;2319397;75;51581;-73
2023/02/14 10:23:01;;;;;;;;;;;;;;;16.80;44.83;103006.45;2319327;76;50373;-73
2023/02/14 10:26:17;;;;;;;;;;;;;;;16.44;43.30;103007.27;2288889;77;49558;-73
2023/02/14 10:29:19;;;;;;;;;;;;;;;16.55;45.15;103011.36;2315920;75;50787;-73
2023/02/14 10:32:25;;;;;;;;;;;;;;;16.76;45.19;103010.27;2319129;76;52573;-73
2023/02/14 10:35:45;;;;;;;;;;;;;;;16.87;45.46;103008.16;2319382;76;50486;-73
2023/02/14 10:38:49;;;;;;;;;;;;;;;16.97;45.79;102999.33;2319327;76;51555;-73
2023/02/14 10:41:58;;;;;;;;;;;;;;;17.14;46.01;103005.25;2319265;76;51474;-73
2023/02/14 10:45:01;;;;;;;;;;;;;;;17.25;46.16;103003.09;2319344;76;51523;-73
2023/02/14 10:48:12;;;;;;;;;;;;;;;17.36;46.37;102993.75;2319335;76;50286;-72
2023/02/14 10:51:29;;;;;;;;;;;;;;;17.45;46.48;102992.21;2294907;76;52903;-73
2023/02/14 10:54:32;;;;;;;;;;;;;;;17.53;46.62;102995.98;2307983;76;51689;-73
2023/02/14 10:57:38;;;;;;;;;;;;;;;17.57;46.92;102998.80;2320529;76;50397;-73
2023/02/14 11:00:41;;;;;;;;;;;;;;;17.62;47.02;102993.95;2319402;76;51463;-72
2023/02/14 11:03:44;;;;;;;;;;;;;;;17.73;47.11;102994.94;2320890;76;51271;-74
2023/02/14 11:06:48;;;;;;;;;;;;;;;17.78;47.23;102996.27;2319405;76;50471;-73
2023/02/14 11:09:49;;;;;;;;;;;;;;;17.86;47.35;102999.72;2319332;76;22226;-74
2023/02/14 11:12:50;;;;;;;;;;;;;;;17.92;47.43;102993.87;2318744;76;51530;-73
2023/02/14 11:15:52;;;;;;;;;;;;;;;18.02;47.46;102988.64;2294519;76;50983;-74
2023/02/14 11:18:56;;;;;;;;;;;;;;;18.06;47.49;102986.94;2320915;76;50465;-74
2023/02/14 11:21:58;;;;;;;;;;;;;;;17.99;47.18;102987.55;2319235;76;50246;-73
2023/02/14 11:25:04;;;;;;;;;;;;;;;17.95;47.68;102984.73;2319606;76;51491;-72
2023/02/14 11:28:06;;;;;;;;;;;;;;;17.91;47.87;102984.63;2265079;76;50123;-73
2023/02/14 11:31:08;;;;;;;;;;;;;;;17.92;48.06;102981.81;2267545;77;51507;-72
2023/02/14 11:34:20;;;;;;;;;;;;;;;17.90;48.34;102977.55;2267203;77;50390;-71
2023/02/14 11:37:24;;;;;;;;;;;;;;;17.86;48.67;102979.63;2242623;77;51853;-72
2023/02/14 11:40:36;;;;;;;;;;;;;;;17.82;48.90;102983.52;2244396;78;52461;-71
2023/02/14 11:43:39;;;;;;;;;;;;;;;17.89;48.91;102975.37;2267335;77;50269;-71
2023/02/14 11:46:41;;;;;;;;;;;;;;;17.91;49.01;102972.58;2266090;78;50483;-72
2023/02/14 11:49:42;;;;;;;;;;;;;;;17.96;49.01;102969.89;2267322;77;50356;-72
2023/02/14 11:52:48;;;;;;;;;;;;;;;18.01;48.94;102965.02;2218561;78;51048;-72
2023/02/14 11:55:54;;;;;;;;;;;;;;;17.99;49.11;102970.98;2295213;76;50730;-71
2023/02/14 11:59:01;;;;;;;;;;;;;;;18.02;49.13;102976.09;2319413;75;51490;-71
2023/02/14 12:02:14;;;;;;;;;;;;;;;17.94;49.37;102966.48;2318804;76;50305;-71
2023/02/14 12:05:29;;;;;;;;;;;;;;;17.92;49.58;102959.54;2294364;76;49830;-71
2023/02/14 12:08:30;;;;;;;;;;;;;;;17.90;49.68;102956.97;2318969;76;50741;-72
2023/02/14 12:11:32;;;;;;;;;;;;;;;17.92;49.75;102953.69;2318881;76;50301;-71
2023/02/14 12:14:34;;;;;;;;;;;;;;;17.87;49.93;102943.83;2318847;76;50407;-72
2023/02/14 12:17:35;;;;;;;;;;;;;;;17.85;50.05;102941.75;2321199;75;52503;-72
2023/02/14 12:20:57;;;;;;;;;;;;;;;17.89;50.09;102940.55;2319400;76;51398;-72
2023/02/14 12:24:16;;;;;;;;;;;;;;;17.97;50.00;102939.94;2320682;76;51382;-72
2023/02/14 12:27:22;;;;;;;;;;;;;;;18.01;50.04;102940.91;2311624;76;50671;-72
2023/02/14 12:30:25;;;;;;;;;;;;;;;18.09;50.00;102924.72;2322988;76;50137;-72
2023/02/14 12:33:27;;;;;;;;;;;;;;;18.15;49.87;102926.39;2324718;76;51657;-71
2023/02/14 12:36:30;;;;;;;;;;;;;;;18.15;49.96;102918.84;2323142;76;51265;-72
2023/02/14 12:39:42;;;;;;;;;;;;;;;18.15;49.99;102910.31;2288538;76;50641;-71
2023/02/14 12:43:04;;;;;;;;;;;;;;;18.16;50.07;102908.48;2247714;77;51764;-72
2023/02/14 12:46:07;;;;;;;;;;;;;;;18.11;50.20;102903.98;2300938;76;50316;-72
2023/02/14 12:49:16;;;;;;;;;;;;;;;18.07;50.37;102896.70;2300607;76;51489;-72
2023/02/14 12:52:19;;;;;;;;;;;;;;;18.03;50.51;102892.55;2298602;76;50316;-72
2023/02/14 12:55:39;;;;;;;;;;;;;;;17.97;50.73;102897.92;2273812;76;51212;-72
2023/02/14 12:58:58;;;;;;;;;;;;;;;18.01;50.65;102888.67;2301564;76;50683;-72
2023/02/14 13:02:04;;;;;;;;;;;;;;;17.98;50.80;102880.89;2299709;76;50886;-71
2023/02/14 13:05:13;;;;;;;;;;;;;;;18.06;50.75;102876.25;2304479;75;50287;-72
2023/02/14 13:08:16;;;;;;;;;;;;;;;18.07;50.79;102875.27;2303540;76;51721;-71
2023/02/14 13:11:20;;;;;;;;;;;;;;;18.11;50.91;102867.81;2304853;75;50086;-72
2023/02/14 13:14:25;;;;;;;;;;;;;;;18.13;50.93;102874.75;2287313;76;50444;-73
2023/02/14 13:17:35;;;;;;;;;;;;;;;18.13;51.00;102871.23;2286405;76;50778;-75
2023/02/14 13:20:38;;;;;;;;;;;;;;;18.11;51.28;102869.16;2262196;77;50353;-74
2023/02/14 13:23:40;;;;;;;;;;;;;;;18.03;51.54;102875.14;2285951;77;50690;-71
2023/02/14 13:26:42;;;;;;;;;;;;;;;17.95;51.74;102870.89;2286173;76;51589;-74
2023/02/14 13:29:45;;;;;;;;;;;;;;;17.92;52.03;102863.96;2286142;78;51501;-72
2023/02/14 13:32:47;;;;;;;;;;;;;;;17.90;52.13;102873.09;2262253;76;51415;-73
2023/02/14 13:35:48;;;;;;;;;;;;;;;17.89;52.32;102862.88;2268967;77;50270;-72
2023/02/14 13:38:51;;;;;;;;;;;;;;;17.92;52.35;102861.28;2290258;76;50359;-73
2023/02/14 13:41:52;;;;;;;;;;;;;;;17.93;52.31;102858.98;2318717;76;51502;-74
2023/02/14 13:44:54;;;;;;;;;;;;;;;17.99;52.25;102857.63;2292506;76;50873;-74
2023/02/14 13:48:03;;;;;;;;;;;;;;;18.00;52.29;102866.02;2317910;76;50250;-74
2023/02/14 13:51:07;;;;;;;;;;;;;;;17.99;52.31;102854.46;2305328;76;51557;-74
2023/02/14 13:54:10;;;;;;;;;;;;;;;17.98;52.55;102858.13;2316793;76;50825;-73
2023/02/14 13:57:31;;;;;;;;;;;;;;;17.98;52.61;102850.55;2292889;76;51805;-71
2023/02/14 14:00:36;;;;;;;;;;;;;;;17.97;52.77;102856.41;2317886;76;51522;-74
2023/02/14 14:03:39;;;;;;;;;;;;;;;17.95;52.79;102855.67;2317854;75;51682;-72
2023/02/14 14:06:59;;;;;;;;;;;;;;;17.93;52.90;102854.97;2280281;76;50687;-75
2023/02/14 14:10:01;;;;;;;;;;;;;;;17.92;52.93;102845.22;2239731;78;51729;-74
2023/02/14 14:13:03;;;;;;;;;;;;;;;17.92;53.09;102847.89;2309972;76;50692;-73
2023/02/14 14:16:27;;;;;;;;;;;;;;;17.93;53.06;102857.65;2319241;76;51484;-74
2023/02/14 14:19:30;;;;;;;;;;;;;;;17.96;52.94;102855.21;2319322;76;50771;-73
2023/02/14 14:22:32;;;;;;;;;;;;;;;17.96;53.08;102849.36;2294635;76;52831;-74
2023/02/14 14:25:36;;;;;;;;;;;;;;;17.96;53.11;102837.30;2319013;76;51526;-72
2023/02/14 14:28:37;;;;;;;;;;;;;;;17.96;53.18;102840.48;2319105;76;50781;-74
2023/02/14 14:31:40;;;;;;;;;;;;;;;17.96;53.26;102839.14;2319041;76;50739;-72
2023/02/14 14:34:43;;;;;;;;;;;;;;;17.95;53.41;102838.76;2284862;76;52572;-73
2023/02/14 14:37:46;;;;;;;;;;;;;;;17.94;53.36;102837.91;2301387;76;51706;-73
2023/02/14 14:40:48;;;;;;;;;;;;;;;17.94;53.45;102834.39;2321019;76;50468;-72
2023/02/14 14:43:49;;;;;;;;;;;;;;;17.94;53.49;102839.75;2320857;76;50597;-73
2023/02/14 14:46:51;;;;;;;;;;;;;;;17.93;53.53;102842.04;2335774;76;52339;-73
2023/02/14 14:49:53;;;;;;;;;;;;;;;17.94;53.55;102833.05;2321059;76;50626;-72
2023/02/14 14:52:55;;;;;;;;;;;;;;;17.95;53.54;102827.55;2320951;76;50670;-73
2023/02/14 14:55:57;;;;;;;;;;;;;;;17.97;53.46;102828.28;2308694;76;50239;-72
2023/02/14 14:59:00;;;;;;;;;;;;;;;17.98;53.57;102825.98;2335331;76;50145;-72
2023/02/14 15:02:02;;;;;;;;;;;;;;;17.95;53.41;102815.98;2322035;75;50288;-72
2023/02/14 15:05:17;;;;;;;;;;;;;;;17.90;53.50;102821.72;2308185;76;50748;-72
2023/02/14 15:08:35;;;;;;;;;;;;;;;17.86;53.58;102822.96;2294439;76;52466;-71
2023/02/14 15:14:56;;;;;;;;;;;;;;;17.78;53.75;102814.18;2319383;76;23335;-72
2023/02/14 15:17:58;;;;;;;;;;;;;;;17.75;53.81;102813.56;2310179;75;51547;-72
2023/02/14 15:21:00;;;;;;;;;;;;;;;17.76;53.83;102811.27;2292263;76;51188;-72
2023/02/14 15:24:02;;;;;;;;;;;;;;;17.75;53.84;102810.88;2320673;76;49460;-72
2023/02/14 15:27:03;;;;;;;;;;;;;;;17.71;53.91;102813.47;2319008;76;51473;-73
2023/02/14 15:30:08;;;;;;;;;;;;;;;17.76;53.85;102797.88;2318995;76;50261;-72
2023/02/14 15:33:09;;;;;;;;;;;;;;;17.90;53.56;102796.27;2319122;76;22995;-71
2023/02/14 15:36:13;;;;;;;;;;;;;;;18.01;53.25;102793.58;2320778;76;52649;-72
2023/02/14 15:39:15;;;;;;;;;;;;;;;18.04;53.14;102796.49;2319049;76;50123;-72
2023/02/14 15:42:28;;;;;;;;;;;;;;;18.04;53.12;102788.45;2318742;76;50677;-74
2023/02/14 15:45:29;;;;;;;;;;;;;;;18.01;53.14;102786.88;2318264;75;22456;-72
2023/02/14 15:48:32;;;;;;;;;;;;;;;17.93;53.38;102788.01;2309561;76;50307;-71
2023/02/14 15:51:35;;;;;;;;;;;;;;;17.89;53.49;102781.69;2319076;76;51396;-72
2023/02/14 15:54:37;;;;;;;;;;;;;;;17.84;53.56;102772.69;2318787;76;50697;-72
2023/02/14 15:57:39;;;;;;;;;;;;;;;17.77;53.73;102771.45;2318836;75;50261;-74
2023/02/14 16:00:42;;;;;;;;;;;;;;;17.72;53.90;102770.48;2320935;76;51232;-72
2023/02/14 16:03:45;;;;;;;;;;;;;;;17.72;53.95;102772.31;2318602;76;51481;-72